Time;durP1;ratioP1;P1;durP2;ratioP2;P2;SDS_P1;SDS_P2;PMS_P1;PMS_P2;Temp;Humidity;BMP_temperature;BMP_pressure;BME280_temperature;BME280_humidity;BME280_pressure;Samples;Min_cycle;Max_cycle;Signal;HPM_P1;HPM_P2
2021/08/13 00:00:09;;;;;;;32.87;30.67;;;21.80;78.50;;;;;;5081213;28;20468;-71
2021/08/13 00:02:35;;;;;;;33.20;31.00;;;21.80;78.60;;;;;;5085512;28;20472;-72
2021/08/13 00:05:02;;;;;;;32.80;30.73;;;21.80;78.60;;;;;;5087668;28;20454;-71
2021/08/13 00:07:29;;;;;;;31.60;29.70;;;21.70;78.80;;;;;;5073359;28;20478;-72
2021/08/13 00:09:56;;;;;;;33.93;31.73;;;21.80;78.70;;;;;;5084167;28;20548;-71
2021/08/13 00:12:24;;;;;;;32.20;30.00;;;21.70;78.70;;;;;;5073368;28;20552;-72
2021/08/13 00:14:51;;;;;;;33.50;31.00;;;21.70;78.80;;;;;;5075425;28;20449;-72
2021/08/13 00:17:18;;;;;;;31.60;29.60;;;21.80;78.80;;;;;;5081831;28;20465;-72
2021/08/13 00:19:45;;;;;;;32.27;30.23;;;21.80;78.70;;;;;;5089246;28;20465;-71
2021/08/13 00:22:12;;;;;;;32.03;29.97;;;21.80;78.70;;;;;;5083855;28;20461;-71
2021/08/13 00:24:39;;;;;;;31.60;29.70;;;21.80;78.60;;;;;;5078934;28;20450;-71
2021/08/13 00:27:06;;;;;;;32.53;30.33;;;21.80;78.80;;;;;;5086331;28;20843;-73
2021/08/13 00:29:34;;;;;;;31.10;29.20;;;21.70;78.90;;;;;;5072250;28;20872;-73
2021/08/13 00:32:01;;;;;;;32.60;30.60;;;21.70;78.90;;;;;;5080601;28;20927;-73
2021/08/13 00:34:28;;;;;;;33.37;31.13;;;21.70;79.10;;;;;;5087439;28;20459;-73
2021/08/13 00:36:55;;;;;;;33.77;31.70;;;21.70;79.00;;;;;;5085512;28;20471;-73
2021/08/13 00:39:22;;;;;;;33.00;30.90;;;21.60;79.00;;;;;;5082439;28;20595;-73
2021/08/13 00:41:48;;;;;;;33.07;31.07;;;21.70;78.80;;;;;;5088069;28;20532;-73
2021/08/13 00:44:15;;;;;;;32.40;30.20;;;21.70;78.60;;;;;;5083917;28;20456;-73
2021/08/13 00:46:44;;;;;;;31.80;29.93;;;21.60;78.90;;;;;;5085539;28;20989;-73
2021/08/13 00:49:11;;;;;;;32.80;30.53;;;21.60;79.10;;;;;;5071733;28;20454;-73
2021/08/13 00:51:38;;;;;;;32.80;30.70;;;21.50;79.10;;;;;;5083002;28;20453;-73
2021/08/13 00:54:05;;;;;;;32.97;30.97;;;21.50;79.20;;;;;;5087607;28;20449;-73
2021/08/13 00:56:32;;;;;;;33.10;31.10;;;21.50;79.20;;;;;;5080657;28;20897;-73
2021/08/13 00:58:59;;;;;;;32.43;30.40;;;21.50;78.90;;;;;;5089131;28;20456;-73
2021/08/13 01:01:26;;;;;;;33.67;31.47;;;21.50;79.00;;;;;;5086857;28;20985;-73
2021/08/13 01:03:54;;;;;;;33.70;31.40;;;21.50;79.10;;;;;;5092839;28;20548;-72
2021/08/13 01:06:21;;;;;;;32.83;30.73;;;21.50;79.20;;;;;;5089600;28;20580;-73
2021/08/13 01:08:48;;;;;;;32.33;30.23;;;21.50;79.10;;;;;;5091005;28;20456;-73
2021/08/13 01:11:20;;;;;;;32.53;30.50;;;21.50;79.10;;;;;;5089594;28;20473;-73
2021/08/13 01:13:55;;;;;;;32.70;30.67;;;21.50;79.00;;;;;;5084182;28;20453;-73
2021/08/13 01:16:23;;;;;;;32.10;30.10;;;21.50;78.80;;;;;;5085403;28;20531;-73
2021/08/13 01:18:56;;;;;;;31.57;29.67;;;21.50;78.80;;;;;;5080595;28;20540;-73
2021/08/13 01:21:42;;;;;;;32.90;30.70;;;21.50;78.80;;;;;;5078157;28;20996;-73
2021/08/13 01:24:15;;;;;;;32.27;30.30;;;21.50;78.90;;;;;;5076803;28;20458;-72
2021/08/13 01:26:49;;;;;;;33.20;31.13;;;21.50;78.90;;;;;;5089029;28;20492;-72
2021/08/13 01:29:38;;;;;;;32.50;30.20;;;21.40;79.10;;;;;;5086905;28;20552;-71
2021/08/13 01:32:34;;;;;;;32.60;30.50;;;21.40;79.10;;;;;;5086788;28;20557;-71
2021/08/13 01:35:06;;;;;;;33.60;31.40;;;21.40;79.20;;;;;;5079566;28;20536;-71
2021/08/13 01:37:35;;;;;;;31.97;29.93;;;21.40;79.20;;;;;;5083818;28;20473;-71
2021/08/13 01:40:05;;;;;;;34.10;31.90;;;21.40;79.20;;;;;;5078280;28;21010;-71
2021/08/13 01:42:34;;;;;;;34.03;31.53;;;21.40;79.30;;;;;;5089471;28;20464;-72
2021/08/13 01:45:03;;;;;;;34.03;31.73;;;21.40;79.30;;;;;;5087350;28;20456;-71
2021/08/13 01:47:33;;;;;;;34.50;32.17;;;21.40;79.60;;;;;;5087088;28;20843;-71
2021/08/13 01:50:00;;;;;;;33.63;31.53;;;21.30;79.80;;;;;;5089027;28;20860;-72
2021/08/13 01:52:28;;;;;;;31.50;29.60;;;21.30;79.70;;;;;;5082316;28;20464;-71
2021/08/13 01:54:57;;;;;;;32.10;30.00;;;21.30;79.80;;;;;;5087630;28;20459;-71
2021/08/13 01:57:25;;;;;;;31.83;29.83;;;21.30;79.50;;;;;;5086378;28;20478;-72
2021/08/13 01:59:52;;;;;;;31.93;29.93;;;21.30;79.80;;;;;;5083291;28;20453;-71
2021/08/13 02:02:20;;;;;;;31.07;29.07;;;21.30;79.90;;;;;;5088041;28;20648;-71
2021/08/13 02:04:51;;;;;;;31.43;29.33;;;21.30;79.90;;;;;;5080678;28;20532;-72
2021/08/13 02:07:20;;;;;;;32.73;30.63;;;21.30;80.00;;;;;;5085182;28;20477;-71
2021/08/13 02:09:47;;;;;;;32.07;30.00;;;21.20;80.10;;;;;;5085995;28;20990;-72
2021/08/13 02:12:14;;;;;;;32.10;29.93;;;21.20;80.30;;;;;;5088506;28;20460;-71
2021/08/13 02:14:41;;;;;;;32.20;30.00;;;21.20;80.20;;;;;;5077759;28;20540;-71
2021/08/13 02:17:15;;;;;;;31.50;29.50;;;21.10;80.20;;;;;;5087332;28;20476;-71
2021/08/13 02:19:46;;;;;;;30.80;28.90;;;21.20;80.10;;;;;;5082955;28;20795;-73
2021/08/13 02:22:14;;;;;;;32.40;30.13;;;21.20;80.20;;;;;;5079615;28;20529;-73
2021/08/13 02:24:41;;;;;;;32.73;30.83;;;21.20;80.10;;;;;;5089055;28;20460;-73
2021/08/13 02:27:08;;;;;;;32.93;30.20;;;21.20;80.10;;;;;;5084258;28;20564;-71
2021/08/13 02:29:35;;;;;;;31.93;29.80;;;21.20;80.10;;;;;;5083027;28;20466;-72
2021/08/13 02:32:02;;;;;;;31.13;29.03;;;21.20;79.90;;;;;;5080910;28;20457;-71
2021/08/13 02:34:29;;;;;;;33.57;31.60;;;21.20;79.80;;;;;;5081391;28;20540;-72
2021/08/13 02:37:02;;;;;;;33.10;31.10;;;21.30;79.70;;;;;;5088988;28;20465;-71
2021/08/13 02:39:35;;;;;;;33.60;31.20;;;21.30;79.40;;;;;;5087453;28;20540;-71
2021/08/13 02:42:05;;;;;;;32.87;30.77;;;21.40;79.50;;;;;;5089569;28;20456;-71
2021/08/13 02:44:35;;;;;;;31.27;29.27;;;21.30;79.80;;;;;;5079724;28;20455;-71
2021/08/13 02:47:06;;;;;;;30.60;28.70;;;21.30;79.80;;;;;;5086367;28;20481;-71
2021/08/13 02:49:35;;;;;;;32.90;30.90;;;21.30;79.80;;;;;;5089638;28;20505;-72
2021/08/13 02:52:07;;;;;;;36.07;33.57;;;21.30;79.90;;;;;;5087701;28;20457;-71
2021/08/13 02:54:36;;;;;;;32.13;30.03;;;21.20;80.00;;;;;;5083700;28;20459;-73
2021/08/13 02:57:05;;;;;;;32.50;30.40;;;21.20;79.90;;;;;;5080250;28;20595;-73
2021/08/13 02:59:34;;;;;;;31.47;29.47;;;21.30;79.80;;;;;;5082178;28;20458;-73
2021/08/13 03:02:03;;;;;;;32.57;30.47;;;21.20;79.90;;;;;;5080680;28;20484;-73
2021/08/13 03:04:31;;;;;;;31.80;29.80;;;21.30;80.00;;;;;;5089215;28;20473;-73
2021/08/13 03:07:00;;;;;;;35.83;33.53;;;21.30;80.10;;;;;;5088068;28;20531;-73
2021/08/13 03:09:28;;;;;;;34.50;32.30;;;21.20;80.20;;;;;;5084722;28;20548;-73
2021/08/13 03:11:56;;;;;;;32.77;30.60;;;21.30;80.30;;;;;;5085321;28;20459;-73
2021/08/13 03:14:24;;;;;;;31.80;29.90;;;21.30;80.40;;;;;;5089034;28;20655;-71
2021/08/13 03:16:52;;;;;;;31.70;29.70;;;21.30;80.20;;;;;;5087919;28;20883;-71
2021/08/13 03:19:20;;;;;;;31.20;29.10;;;21.30;80.20;;;;;;5087948;28;20460;-72
2021/08/13 03:21:48;;;;;;;31.90;29.60;;;21.30;80.10;;;;;;5084547;28;20457;-72
2021/08/13 03:24:15;;;;;;;34.60;32.50;;;21.40;80.20;;;;;;5086285;28;20463;-72
2021/08/13 03:26:43;;;;;;;30.97;29.10;;;21.30;80.20;;;;;;5079388;28;20473;-72
2021/08/13 03:29:11;;;;;;;33.17;31.07;;;21.30;80.10;;;;;;5075803;28;20485;-72
2021/08/13 03:31:40;;;;;;;33.90;31.67;;;21.40;80.10;;;;;;5088509;28;20951;-71
2021/08/13 03:34:11;;;;;;;31.50;29.57;;;21.40;80.10;;;;;;5084674;28;20453;-71
2021/08/13 03:36:39;;;;;;;31.60;29.40;;;21.30;80.30;;;;;;5078048;28;20468;-71
2021/08/13 03:39:06;;;;;;;32.20;30.20;;;21.30;80.60;;;;;;5089691;28;20464;-71
2021/08/13 03:41:33;;;;;;;35.90;33.70;;;21.20;80.70;;;;;;5080992;28;20462;-71
2021/08/13 03:44:00;;;;;;;37.87;35.67;;;21.20;80.80;;;;;;5081960;28;20819;-71
2021/08/13 03:46:29;;;;;;;34.80;32.53;;;21.20;80.80;;;;;;5069834;28;20458;-71
2021/08/13 03:48:56;;;;;;;33.43;31.13;;;21.20;81.20;;;;;;5087474;28;20915;-71
2021/08/13 03:51:22;;;;;;;33.83;31.53;;;21.10;81.60;;;;;;5080627;28;20464;-71
2021/08/13 03:53:50;;;;;;;32.10;30.00;;;21.00;81.80;;;;;;5085185;28;20572;-71
2021/08/13 03:56:17;;;;;;;35.73;33.53;;;21.00;81.80;;;;;;5085242;28;20465;-71
2021/08/13 03:58:43;;;;;;;32.17;30.07;;;21.10;81.50;;;;;;5088236;28;20849;-71
2021/08/13 04:01:11;;;;;;;34.53;32.33;;;21.20;81.50;;;;;;5083001;28;21058;-73
2021/08/13 04:03:39;;;;;;;36.40;34.20;;;21.30;81.30;;;;;;5089926;28;20472;-73
2021/08/13 04:06:06;;;;;;;33.03;30.80;;;21.40;81.00;;;;;;5081306;28;20969;-73
2021/08/13 04:08:33;;;;;;;36.53;34.13;;;21.50;80.70;;;;;;5085883;28;20472;-73
2021/08/13 04:11:00;;;;;;;33.90;31.50;;;21.50;80.60;;;;;;5085424;28;20497;-72
2021/08/13 04:13:27;;;;;;;34.57;32.27;;;21.50;80.50;;;;;;5090111;28;20548;-71
2021/08/13 04:15:54;;;;;;;37.17;34.50;;;21.60;80.40;;;;;;5082597;28;20461;-72
2021/08/13 04:18:22;;;;;;;35.23;32.73;;;21.60;80.50;;;;;;5086468;28;20568;-71
2021/08/13 04:20:50;;;;;;;36.13;33.63;;;21.60;80.30;;;;;;5085174;28;21077;-71
2021/08/13 04:23:17;;;;;;;38.47;35.80;;;21.70;80.40;;;;;;5083469;28;20488;-71
2021/08/13 04:25:44;;;;;;;36.30;34.00;;;21.70;80.30;;;;;;5080544;28;20463;-71
2021/08/13 04:28:11;;;;;;;37.00;34.20;;;21.70;80.20;;;;;;5084778;28;20477;-73
2021/08/13 04:30:38;;;;;;;38.10;35.30;;;21.80;80.20;;;;;;5082112;28;20453;-73
2021/08/13 04:33:08;;;;;;;39.77;36.97;;;21.80;80.40;;;;;;5080018;28;20472;-73
2021/08/13 04:35:36;;;;;;;39.90;37.10;;;21.80;80.40;;;;;;5086172;28;20946;-73
2021/08/13 04:38:05;;;;;;;35.10;32.90;;;21.80;80.40;;;;;;5085199;28;21125;-73
2021/08/13 04:40:32;;;;;;;37.40;34.80;;;21.80;80.40;;;;;;5085243;28;20545;-73
2021/08/13 04:42:59;;;;;;;37.83;35.33;;;21.90;80.30;;;;;;5080895;28;20472;-72
2021/08/13 04:45:26;;;;;;;37.47;34.97;;;21.80;80.50;;;;;;5080630;28;20456;-72
2021/08/13 04:47:53;;;;;;;39.30;36.60;;;21.90;80.50;;;;;;5085709;28;20551;-72
2021/08/13 04:50:20;;;;;;;38.73;35.87;;;21.90;80.40;;;;;;5085378;28;20544;-72
2021/08/13 04:52:49;;;;;;;35.40;32.77;;;21.90;80.80;;;;;;5084469;28;20456;-73
2021/08/13 04:55:21;;;;;;;36.03;33.63;;;21.90;80.90;;;;;;5083333;28;20457;-73
2021/08/13 04:57:48;;;;;;;38.80;35.57;;;21.90;80.70;;;;;;5079997;28;20831;-72
2021/08/13 05:00:15;;;;;;;34.80;32.43;;;21.90;80.50;;;;;;5084757;28;20474;-72
2021/08/13 05:02:42;;;;;;;36.17;33.87;;;21.90;80.80;;;;;;5084004;28;20907;-72
2021/08/13 05:05:10;;;;;;;41.07;37.97;;;21.90;81.20;;;;;;5084361;28;20538;-73
2021/08/13 05:07:37;;;;;;;35.93;33.70;;;21.90;81.20;;;;;;5084243;28;20572;-76
2021/08/13 05:10:10;;;;;;;35.63;32.60;;;21.90;81.00;;;;;;5087235;28;20457;-73
2021/08/13 05:12:39;;;;;;;36.63;34.03;;;21.90;81.10;;;;;;5083822;28;20453;-72
2021/08/13 05:15:08;;;;;;;37.90;35.40;;;21.90;80.90;;;;;;5082551;28;20226;-72
2021/08/13 05:17:35;;;;;;;34.90;32.50;;;21.90;81.00;;;;;;5078878;28;20858;-73
2021/08/13 05:20:03;;;;;;;34.03;31.80;;;21.80;81.20;;;;;;5086055;28;20974;-73
2021/08/13 05:22:32;;;;;;;37.03;34.73;;;21.80;81.10;;;;;;5084634;28;20494;-74
2021/08/13 05:25:00;;;;;;;36.17;33.87;;;21.90;80.90;;;;;;5078580;28;20460;-73
2021/08/13 05:27:27;;;;;;;33.83;31.30;;;21.90;81.00;;;;;;5078588;28;21306;-74
2021/08/13 05:29:56;;;;;;;33.90;31.57;;;21.90;80.70;;;;;;5086645;28;20835;-73
2021/08/13 05:32:24;;;;;;;34.27;31.93;;;22.00;80.60;;;;;;5082652;28;20454;-73
2021/08/13 05:34:51;;;;;;;35.53;33.17;;;22.00;80.60;;;;;;5084870;28;20461;-73
2021/08/13 05:37:18;;;;;;;39.47;36.47;;;22.10;80.40;;;;;;5080798;28;20473;-73
2021/08/13 05:39:45;;;;;;;36.07;33.67;;;22.30;80.10;;;;;;5080032;28;20446;-73
2021/08/13 05:42:12;;;;;;;36.63;34.23;;;22.30;80.20;;;;;;5079502;28;20475;-73
2021/08/13 05:44:39;;;;;;;40.00;37.50;;;22.40;80.20;;;;;;5082868;28;21213;-73
2021/08/13 05:47:07;;;;;;;39.40;36.40;;;22.40;80.00;;;;;;5082598;28;20943;-73
2021/08/13 05:49:34;;;;;;;34.83;32.23;;;22.50;79.50;;;;;;5080305;28;20465;-76
2021/08/13 05:52:02;;;;;;;37.60;35.07;;;22.60;78.90;;;;;;5087355;28;20457;-75
2021/08/13 05:54:30;;;;;;;35.77;32.80;;;22.60;78.70;;;;;;5083528;28;20445;-72
2021/08/13 05:57:00;;;;;;;35.90;33.20;;;22.60;79.00;;;;;;5087357;28;20552;-73
2021/08/13 05:59:27;;;;;;;41.13;38.43;;;22.60;79.30;;;;;;5077128;28;21173;-73
2021/08/13 06:01:54;;;;;;;39.67;36.97;;;22.50;79.20;;;;;;5087015;28;20504;-72
2021/08/13 06:04:22;;;;;;;41.60;39.10;;;22.60;79.20;;;;;;5084492;28;20512;-72
2021/08/13 06:06:49;;;;;;;35.50;32.90;;;22.70;78.80;;;;;;5086097;28;20480;-72
2021/08/13 06:09:16;;;;;;;36.93;34.43;;;22.80;78.80;;;;;;5085695;28;21047;-72
2021/08/13 06:11:43;;;;;;;37.20;34.60;;;23.00;78.30;;;;;;5082380;28;20468;-72
2021/08/13 06:14:10;;;;;;;36.27;33.87;;;23.10;78.00;;;;;;5079485;28;20547;-73
2021/08/13 06:16:37;;;;;;;39.20;36.60;;;23.20;77.30;;;;;;5083193;28;21005;-72
2021/08/13 06:19:07;;;;;;;40.47;37.77;;;23.30;76.70;;;;;;5074453;28;20458;-72
2021/08/13 06:21:35;;;;;;;37.20;34.87;;;23.40;76.70;;;;;;5087282;28;20971;-73
2021/08/13 06:24:02;;;;;;;38.27;35.87;;;23.50;76.40;;;;;;5071893;28;20541;-72
2021/08/13 06:26:29;;;;;;;36.50;34.20;;;23.60;76.00;;;;;;5083672;28;20464;-72
2021/08/13 06:28:56;;;;;;;40.47;37.97;;;23.80;75.80;;;;;;5083591;28;20474;-73
2021/08/13 06:31:23;;;;;;;36.37;34.00;;;24.00;75.10;;;;;;5076661;28;20460;-74
2021/08/13 06:33:50;;;;;;;36.13;33.73;;;24.20;74.90;;;;;;5088072;28;21241;-76
2021/08/13 06:36:18;;;;;;;36.97;34.23;;;24.40;74.80;;;;;;5087887;28;20927;-74
2021/08/13 06:38:47;;;;;;;39.83;37.00;;;24.50;74.20;;;;;;5088921;28;20522;-72
2021/08/13 06:41:14;;;;;;;38.70;36.20;;;24.60;73.40;;;;;;5085171;28;20974;-72
2021/08/13 06:43:41;;;;;;;40.20;37.40;;;24.50;73.50;;;;;;5082021;28;20485;-72
2021/08/13 06:46:08;;;;;;;39.13;36.60;;;24.50;73.60;;;;;;5082451;28;20453;-72
2021/08/13 06:48:35;;;;;;;41.83;39.00;;;24.60;73.40;;;;;;5077886;28;20977;-73
2021/08/13 06:51:02;;;;;;;39.63;36.70;;;24.80;73.20;;;;;;5074106;28;20460;-73
2021/08/13 06:53:33;;;;;;;42.27;39.67;;;24.90;72.90;;;;;;5085884;28;20457;-72
2021/08/13 06:56:01;;;;;;;41.40;38.70;;;24.90;72.70;;;;;;5083371;28;20541;-73
2021/08/13 06:58:30;;;;;;;41.23;38.67;;;25.00;72.20;;;;;;5086787;28;20990;-72
2021/08/13 07:00:59;;;;;;;39.77;37.47;;;25.10;71.80;;;;;;5086426;28;20462;-72
2021/08/13 07:03:26;;;;;;;41.30;38.40;;;25.10;71.40;;;;;;5090209;28;20480;-73
2021/08/13 07:05:53;;;;;;;41.33;38.73;;;25.20;71.50;;;;;;5087617;28;20856;-72
2021/08/13 07:08:20;;;;;;;39.60;37.10;;;25.30;71.60;;;;;;5087284;28;20491;-72
2021/08/13 07:10:47;;;;;;;39.83;37.20;;;25.40;71.10;;;;;;5079679;28;20461;-72
2021/08/13 07:13:15;;;;;;;43.10;40.40;;;25.50;71.10;;;;;;5077121;28;20831;-72
2021/08/13 07:15:42;;;;;;;41.80;39.00;;;25.60;70.60;;;;;;5081582;28;20456;-72
2021/08/13 07:18:09;;;;;;;41.63;39.23;;;25.70;70.50;;;;;;5080366;28;20476;-72
2021/08/13 07:20:36;;;;;;;40.97;38.57;;;25.90;69.60;;;;;;5076326;28;20823;-78
2021/08/13 07:23:06;;;;;;;41.00;38.50;;;25.90;68.90;;;;;;5075205;28;20966;-75
2021/08/13 07:25:33;;;;;;;40.90;38.10;;;26.00;68.90;;;;;;5076431;28;20458;-75
2021/08/13 07:28:00;;;;;;;39.37;36.77;;;26.10;68.80;;;;;;5088613;28;20501;-74
2021/08/13 07:30:28;;;;;;;40.27;37.50;;;26.20;68.90;;;;;;5080347;28;20565;-74
2021/08/13 07:32:55;;;;;;;42.67;39.90;;;26.30;68.80;;;;;;5081982;28;20461;-74
2021/08/13 07:35:22;;;;;;;43.00;40.13;;;26.40;68.20;;;;;;5084920;28;20476;-73
2021/08/13 07:37:49;;;;;;;42.40;39.80;;;26.50;67.90;;;;;;5078704;28;20478;-72
2021/08/13 07:40:16;;;;;;;42.07;39.10;;;26.50;67.40;;;;;;5073190;28;20457;-73
2021/08/13 07:42:43;;;;;;;42.60;40.00;;;26.50;67.10;;;;;;5083228;28;20458;-72
2021/08/13 07:45:11;;;;;;;40.87;38.10;;;26.60;67.00;;;;;;5083635;28;20463;-72
2021/08/13 07:47:40;;;;;;;43.40;40.63;;;26.70;66.60;;;;;;5085444;28;20469;-72
2021/08/13 07:50:09;;;;;;;44.57;41.67;;;26.70;66.70;;;;;;5083508;28;21021;-72
2021/08/13 07:52:36;;;;;;;45.43;42.00;;;26.80;66.20;;;;;;5084529;28;20462;-73
2021/08/13 07:55:05;;;;;;;43.40;40.33;;;26.80;66.30;;;;;;5087536;28;20552;-73
2021/08/13 07:57:32;;;;;;;46.00;42.43;;;26.80;66.20;;;;;;5087000;28;20510;-72
2021/08/13 07:59:59;;;;;;;42.93;40.10;;;26.80;67.00;;;;;;5079096;28;20473;-72
2021/08/13 08:02:26;;;;;;;43.00;39.80;;;26.70;67.50;;;;;;5082970;28;21043;-72
2021/08/13 08:04:54;;;;;;;45.97;42.83;;;26.70;67.60;;;;;;5083910;28;20792;-72
2021/08/13 08:07:21;;;;;;;43.37;40.20;;;26.80;67.30;;;;;;5083061;28;20477;-73
2021/08/13 08:09:48;;;;;;;43.30;40.17;;;26.90;67.20;;;;;;5079891;28;20556;-73
2021/08/13 08:12:15;;;;;;;41.90;39.17;;;26.80;67.30;;;;;;5087686;28;20465;-74
2021/08/13 08:14:42;;;;;;;42.90;40.00;;;26.90;67.20;;;;;;5083476;28;20548;-73
2021/08/13 08:17:09;;;;;;;41.13;38.23;;;26.90;67.20;;;;;;5081039;28;20473;-73
2021/08/13 08:19:36;;;;;;;45.63;42.70;;;27.00;67.20;;;;;;5084895;28;20489;-73
2021/08/13 08:22:05;;;;;;;39.90;37.20;;;26.90;67.00;;;;;;5087394;28;20861;-71
2021/08/13 08:24:31;;;;;;;43.60;40.30;;;27.00;67.20;;;;;;5089945;28;20456;-71
2021/08/13 08:26:58;;;;;;;43.87;40.70;;;27.20;67.00;;;;;;5087120;28;20513;-71
2021/08/13 08:29:26;;;;;;;45.77;42.20;;;27.40;66.20;;;;;;5085099;28;20572;-71
2021/08/13 08:31:53;;;;;;;44.43;41.23;;;27.60;66.30;;;;;;5085540;28;20461;-71
2021/08/13 08:34:20;;;;;;;46.37;43.20;;;27.80;65.10;;;;;;5076213;28;20450;-71
2021/08/13 08:36:47;;;;;;;44.40;41.43;;;27.70;65.20;;;;;;5085916;28;20508;-71
2021/08/13 08:39:15;;;;;;;46.33;43.00;;;27.80;65.10;;;;;;5078752;28;21060;-71
2021/08/13 08:41:44;;;;;;;46.13;43.00;;;27.80;64.70;;;;;;5088409;28;20892;-71
2021/08/13 08:44:12;;;;;;;44.63;41.40;;;27.90;64.30;;;;;;5085656;28;20969;-71
2021/08/13 08:46:39;;;;;;;47.13;43.57;;;27.80;64.70;;;;;;5075159;28;20499;-71
2021/08/13 08:49:10;;;;;;;43.07;39.20;;;27.90;64.60;;;;;;5080821;28;20478;-73
2021/08/13 08:51:38;;;;;;;47.57;44.20;;;28.10;64.00;;;;;;5080796;28;21092;-73
2021/08/13 08:54:05;;;;;;;42.97;40.17;;;28.00;64.40;;;;;;5085661;28;20803;-73
2021/08/13 08:56:34;;;;;;;44.37;41.47;;;28.00;64.30;;;;;;5079390;28;20465;-73
2021/08/13 08:59:02;;;;;;;40.60;37.80;;;28.00;63.80;;;;;;5079058;28;20455;-74
2021/08/13 09:01:29;;;;;;;45.53;42.77;;;27.90;64.00;;;;;;5076009;28;20461;-73
2021/08/13 09:03:56;;;;;;;40.83;37.87;;;27.90;64.50;;;;;;5084153;28;20453;-74
2021/08/13 09:06:23;;;;;;;41.80;37.70;;;28.00;64.40;;;;;;5080917;28;20488;-73
2021/08/13 09:08:52;;;;;;;41.70;38.90;;;28.10;63.90;;;;;;5078850;28;20535;-70
2021/08/13 09:11:25;;;;;;;41.83;39.13;;;28.10;63.60;;;;;;5081988;28;20442;-70
2021/08/13 09:14:06;;;;;;;41.93;39.03;;;28.10;63.80;;;;;;5089503;28;20455;-72
2021/08/13 09:16:33;;;;;;;42.93;39.93;;;28.30;63.10;;;;;;5080934;28;20464;-72
2021/08/13 09:19:03;;;;;;;42.17;39.47;;;28.30;62.60;;;;;;5086111;28;20460;-72
2021/08/13 09:21:31;;;;;;;42.97;39.77;;;28.50;62.40;;;;;;5089862;28;20463;-71
2021/08/13 09:24:11;;;;;;;42.10;39.30;;;28.40;62.70;;;;;;5089915;28;20943;-73
2021/08/13 09:26:41;;;;;;;41.63;38.47;;;28.50;62.20;;;;;;5088485;28;20476;-72
2021/08/13 09:29:11;;;;;;;42.40;39.70;;;28.50;62.30;;;;;;5091594;28;20476;-72
2021/08/13 09:31:39;;;;;;;40.73;37.90;;;28.60;62.10;;;;;;5091357;28;20468;-71
2021/08/13 09:34:11;;;;;;;43.23;39.90;;;28.70;62.00;;;;;;5085082;28;20494;-72
2021/08/13 09:36:40;;;;;;;44.13;40.73;;;28.70;62.10;;;;;;5089044;28;20832;-71
2021/08/13 09:39:08;;;;;;;43.50;40.63;;;28.80;62.00;;;;;;5090834;28;20463;-72
2021/08/13 09:41:45;;;;;;;44.07;41.07;;;28.90;61.50;;;;;;5088687;28;20453;-72
2021/08/13 09:44:22;;;;;;;40.80;37.90;;;29.10;61.30;;;;;;5084788;28;20457;-72
2021/08/13 09:47:01;;;;;;;42.87;39.87;;;29.20;60.30;;;;;;5090349;28;20469;-71
2021/08/13 09:49:29;;;;;;;39.27;36.87;;;28.90;60.90;;;;;;5086124;28;20976;-71
2021/08/13 09:51:56;;;;;;;40.40;37.50;;;29.00;61.00;;;;;;5089253;28;20858;-72
2021/08/13 09:54:30;;;;;;;43.33;40.30;;;29.10;61.40;;;;;;5088786;28;20481;-71
2021/08/13 09:57:08;;;;;;;40.70;37.90;;;29.20;60.70;;;;;;5085679;28;20476;-71
2021/08/13 09:59:37;;;;;;;40.83;37.77;;;29.30;61.20;;;;;;5083798;28;20926;-71
2021/08/13 10:02:12;;;;;;;43.87;40.80;;;29.40;60.60;;;;;;5090421;28;20453;-70
2021/08/13 10:04:39;;;;;;;44.30;41.20;;;29.50;60.70;;;;;;5091145;28;20875;-71
2021/08/13 10:07:17;;;;;;;40.60;37.90;;;29.60;60.00;;;;;;5089787;28;20556;-71
2021/08/13 10:09:44;;;;;;;41.83;39.07;;;29.60;59.60;;;;;;5079348;28;20494;-72
2021/08/13 10:12:14;;;;;;;39.90;36.90;;;29.70;59.70;;;;;;5086414;28;20472;-71
2021/08/13 10:14:45;;;;;;;41.53;37.70;;;29.70;59.50;;;;;;5080917;28;20446;-70
2021/08/13 10:17:14;;;;;;;42.17;39.27;;;29.90;59.50;;;;;;5085374;28;20480;-71
2021/08/13 10:19:45;;;;;;;40.90;38.30;;;29.80;59.50;;;;;;5077448;28;20453;-71
2021/08/13 10:22:12;;;;;;;42.57;39.27;;;29.90;59.50;;;;;;5084834;28;20532;-71
2021/08/13 10:24:43;;;;;;;45.30;41.40;;;29.90;59.40;;;;;;5086544;28;20457;-72
2021/08/13 10:27:10;;;;;;;44.00;40.70;;;30.00;59.50;;;;;;5090815;28;20488;-71
2021/08/13 10:29:38;;;;;;;43.57;40.57;;;30.00;59.80;;;;;;5090682;28;20469;-72
2021/08/13 10:32:06;;;;;;;45.07;41.80;;;30.00;60.30;;;;;;5081490;28;21339;-69
2021/08/13 10:34:34;;;;;;;41.77;38.70;;;30.00;59.80;;;;;;5084858;28;20792;-69
2021/08/13 10:37:09;;;;;;;43.10;40.00;;;29.90;60.30;;;;;;5086822;28;20470;-69
2021/08/13 10:39:38;;;;;;;45.97;42.43;;;30.00;60.20;;;;;;5085950;28;20446;-70
2021/08/13 10:42:06;;;;;;;40.53;37.60;;;30.10;60.20;;;;;;5074836;28;20454;-70
2021/08/13 10:44:37;;;;;;;42.37;39.57;;;30.10;60.00;;;;;;5085768;28;20453;-69
2021/08/13 10:47:14;;;;;;;47.17;43.93;;;30.20;60.00;;;;;;5090206;28;21017;-71
2021/08/13 10:49:46;;;;;;;41.20;38.27;;;30.00;60.30;;;;;;5076635;28;20584;-71
2021/08/13 10:52:13;;;;;;;42.23;39.53;;;29.80;60.80;;;;;;5087976;28;20497;-71
2021/08/13 10:54:41;;;;;;;42.77;39.87;;;29.60;61.40;;;;;;5088733;28;20540;-71
2021/08/13 10:57:09;;;;;;;44.00;40.90;;;29.70;61.50;;;;;;5088965;28;20477;-72
2021/08/13 10:59:58;;;;;;;41.93;39.17;;;29.70;61.10;;;;;;5083763;28;20816;-71
2021/08/13 11:02:26;;;;;;;44.80;41.90;;;29.80;61.00;;;;;;5084797;28;20462;-73
2021/08/13 11:04:53;;;;;;;41.97;39.13;;;29.60;61.60;;;;;;5083636;28;20822;-73
2021/08/13 11:07:58;;;;;;;41.47;38.60;;;29.60;62.00;;;;;;5087642;28;20556;-71
2021/08/13 11:10:55;;;;;;;42.67;39.57;;;29.80;61.50;;;;;;5082422;28;20480;-71
2021/08/13 11:13:24;;;;;;;47.10;43.93;;;29.70;61.00;;;;;;5082349;28;20452;-72
2021/08/13 11:15:52;;;;;;;42.13;38.87;;;29.50;61.50;;;;;;5079701;28;20453;-72
2021/08/13 11:18:54;;;;;;;43.10;40.20;;;29.50;61.60;;;;;;5086115;28;20575;-73
2021/08/13 11:21:32;;;;;;;42.20;39.00;;;29.60;61.60;;;;;;5080968;28;20445;-73
2021/08/13 11:24:01;;;;;;;42.13;39.43;;;29.60;61.70;;;;;;5076123;28;20454;-73
2021/08/13 11:27:05;;;;;;;47.07;44.07;;;29.70;61.40;;;;;;5078093;28;20465;-72
2021/08/13 11:29:43;;;;;;;46.33;42.87;;;29.80;60.90;;;;;;5088524;28;20481;-73
2021/08/13 11:32:27;;;;;;;47.73;44.40;;;29.80;61.20;;;;;;5082255;28;20458;-73
2021/08/13 11:34:58;;;;;;;41.47;38.23;;;29.90;61.10;;;;;;5080682;28;21159;-74
2021/08/13 11:37:48;;;;;;;42.00;38.70;;;29.90;60.80;;;;;;5085439;28;20531;-73
2021/08/13 11:40:44;;;;;;;39.60;37.10;;;30.10;60.70;;;;;;5077339;28;20451;-76
2021/08/13 11:43:13;;;;;;;42.23;39.30;;;30.10;60.50;;;;;;5070707;28;20457;-74
2021/08/13 11:45:41;;;;;;;45.87;42.77;;;30.00;60.80;;;;;;5076872;28;20457;-73
2021/08/13 11:48:10;;;;;;;46.00;42.60;;;30.00;60.60;;;;;;5083842;28;20477;-73
2021/08/13 11:50:39;;;;;;;40.37;37.40;;;30.10;60.50;;;;;;5080393;28;20487;-74
2021/08/13 11:53:06;;;;;;;40.93;38.23;;;30.20;60.40;;;;;;5086928;28;20822;-72
2021/08/13 11:55:34;;;;;;;44.27;41.20;;;30.50;59.90;;;;;;5080883;28;20457;-71
2021/08/13 11:58:02;;;;;;;41.67;38.97;;;30.60;59.70;;;;;;5081100;28;20481;-72
2021/08/13 12:00:32;;;;;;;45.17;42.47;;;30.50;59.60;;;;;;5085673;28;20480;-73
2021/08/13 12:03:00;;;;;;;43.80;41.00;;;30.50;59.80;;;;;;5085437;28;20561;-71
2021/08/13 12:05:32;;;;;;;45.90;42.90;;;30.60;59.50;;;;;;5087166;28;20457;-71
2021/08/13 12:08:02;;;;;;;40.20;37.50;;;30.70;59.40;;;;;;5082593;28;20477;-71
2021/08/13 12:10:30;;;;;;;43.63;40.70;;;30.90;59.40;;;;;;5085340;28;20487;-71
2021/08/13 12:13:04;;;;;;;43.90;40.87;;;30.90;59.30;;;;;;5088904;28;20507;-71
2021/08/13 12:15:34;;;;;;;39.73;36.87;;;30.80;59.40;;;;;;5086451;28;20457;-70
2021/08/13 12:18:02;;;;;;;44.90;41.93;;;30.50;59.70;;;;;;5089017;28;20477;-73
2021/08/13 12:20:29;;;;;;;46.27;43.20;;;30.60;59.80;;;;;;5078019;28;20462;-74
2021/08/13 12:23:05;;;;;;;45.03;42.07;;;30.80;59.60;;;;;;5086998;28;20457;-74
2021/08/13 12:25:34;;;;;;;43.00;40.20;;;31.00;59.20;;;;;;5083383;28;20455;-71
2021/08/13 12:28:02;;;;;;;42.77;40.07;;;31.20;58.60;;;;;;5088917;28;20473;-73
2021/08/13 12:30:29;;;;;;;44.57;41.23;;;31.20;58.90;;;;;;5088334;28;20558;-72
2021/08/13 12:32:58;;;;;;;44.13;41.03;;;31.40;58.40;;;;;;5084486;28;20450;-73
2021/08/13 12:35:26;;;;;;;45.30;42.40;;;31.40;58.10;;;;;;5087897;28;20453;-73
2021/08/13 12:37:55;;;;;;;44.53;41.30;;;31.10;58.70;;;;;;5083822;28;21185;-73